sensor_id;sensor_type;location;lat;lon;timestamp;P1;durP1;ratioP1;P2;durP2;ratioP2
54561;SDS011;69047;53.358;-1.486;2023-05-07T00:01:12;2.28;;;1.10;;
54561;SDS011;69047;53.358;-1.486;2023-05-07T00:03:38;3.47;;;1.60;;
54561;SDS011;69047;53.358;-1.486;2023-05-07T00:06:04;2.67;;;1.42;;
54561;SDS011;69047;53.358;-1.486;2023-05-07T00:08:29;2.72;;;1.65;;
54561;SDS011;69047;53.358;-1.486;2023-05-07T00:10:55;2.70;;;1.40;;
54561;SDS011;69047;53.358;-1.486;2023-05-07T00:13:20;1.95;;;0.80;;
54561;SDS011;69047;53.358;-1.486;2023-05-07T00:15:45;2.72;;;1.23;;
54561;SDS011;69047;53.358;-1.486;2023-05-07T00:18:11;1.98;;;1.40;;
54561;SDS011;69047;53.358;-1.486;2023-05-07T00:20:36;1.40;;;1.02;;
54561;SDS011;69047;53.358;-1.486;2023-05-07T00:23:02;1.30;;;1.20;;
54561;SDS011;69047;53.358;-1.486;2023-05-07T00:25:27;2.70;;;1.30;;
54561;SDS011;69047;53.358;-1.486;2023-05-07T00:27:52;2.42;;;1.33;;
54561;SDS011;69047;53.358;-1.486;2023-05-07T00:30:18;4.22;;;1.13;;
54561;SDS011;69047;53.358;-1.486;2023-05-07T00:32:43;2.20;;;1.27;;
54561;SDS011;69047;53.358;-1.486;2023-05-07T00:35:10;2.08;;;0.98;;
54561;SDS011;69047;53.358;-1.486;2023-05-07T00:37:36;2.20;;;1.50;;
54561;SDS011;69047;53.358;-1.486;2023-05-07T00:40:01;2.72;;;1.33;;
54561;SDS011;69047;53.358;-1.486;2023-05-07T00:42:29;2.65;;;1.35;;
54561;SDS011;69047;53.358;-1.486;2023-05-07T00:44:57;1.77;;;1.50;;
54561;SDS011;69047;53.358;-1.486;2023-05-07T00:47:22;2.33;;;1.60;;
54561;SDS011;69047;53.358;-1.486;2023-05-07T00:49:48;3.65;;;1.38;;
54561;SDS011;69047;53.358;-1.486;2023-05-07T00:52:14;4.20;;;1.58;;
54561;SDS011;69047;53.358;-1.486;2023-05-07T00:54:41;1.83;;;1.38;;
54561;SDS011;69047;53.358;-1.486;2023-05-07T00:57:07;3.55;;;1.50;;
54561;SDS011;69047;53.358;-1.486;2023-05-07T00:59:34;1.48;;;1.23;;
54561;SDS011;69047;53.358;-1.486;2023-05-07T01:02:00;2.25;;;1.45;;
54561;SDS011;69047;53.358;-1.486;2023-05-07T01:04:26;1.65;;;1.50;;
54561;SDS011;69047;53.358;-1.486;2023-05-07T01:06:51;1.83;;;1.40;;
54561;SDS011;69047;53.358;-1.486;2023-05-07T01:09:19;1.83;;;1.55;;
54561;SDS011;69047;53.358;-1.486;2023-05-07T01:11:45;1.50;;;1.40;;
54561;SDS011;69047;53.358;-1.486;2023-05-07T01:14:10;1.92;;;1.30;;
54561;SDS011;69047;53.358;-1.486;2023-05-07T01:16:36;2.40;;;1.58;;
54561;SDS011;69047;53.358;-1.486;2023-05-07T01:19:02;1.85;;;1.30;;
54561;SDS011;69047;53.358;-1.486;2023-05-07T01:21:27;1.52;;;1.42;;
54561;SDS011;69047;53.358;-1.486;2023-05-07T01:23:57;2.28;;;1.40;;
54561;SDS011;69047;53.358;-1.486;2023-05-07T01:26:23;1.38;;;1.27;;
54561;SDS011;69047;53.358;-1.486;2023-05-07T01:28:48;1.98;;;1.20;;
54561;SDS011;69047;53.358;-1.486;2023-05-07T01:31:14;1.63;;;1.05;;
54561;SDS011;69047;53.358;-1.486;2023-05-07T01:33:43;1.52;;;1.30;;
54561;SDS011;69047;53.358;-1.486;2023-05-07T01:36:12;1.67;;;1.30;;
54561;SDS011;69047;53.358;-1.486;2023-05-07T01:38:38;2.05;;;1.50;;
54561;SDS011;69047;53.358;-1.486;2023-05-07T01:41:04;1.15;;;1.08;;
54561;SDS011;69047;53.358;-1.486;2023-05-07T01:43:30;2.38;;;1.25;;
54561;SDS011;69047;53.358;-1.486;2023-05-07T01:45:55;2.17;;;1.77;;
54561;SDS011;69047;53.358;-1.486;2023-05-07T01:48:22;3.22;;;1.45;;
54561;SDS011;69047;53.358;-1.486;2023-05-07T01:50:47;1.65;;;1.20;;
54561;SDS011;69047;53.358;-1.486;2023-05-07T01:53:13;2.25;;;1.50;;
54561;SDS011;69047;53.358;-1.486;2023-05-07T01:55:38;3.15;;;1.65;;
54561;SDS011;69047;53.358;-1.486;2023-05-07T01:58:05;2.58;;;1.52;;
54561;SDS011;69047;53.358;-1.486;2023-05-07T02:00:30;1.30;;;1.20;;
54561;SDS011;69047;53.358;-1.486;2023-05-07T02:02:56;1.45;;;1.25;;
54561;SDS011;69047;53.358;-1.486;2023-05-07T02:05:22;3.28;;;1.50;;
54561;SDS011;69047;53.358;-1.486;2023-05-07T02:07:47;1.80;;;1.50;;
54561;SDS011;69047;53.358;-1.486;2023-05-07T02:10:13;1.45;;;1.27;;
54561;SDS011;69047;53.358;-1.486;2023-05-07T02:12:38;1.90;;;1.60;;
54561;SDS011;69047;53.358;-1.486;2023-05-07T02:15:03;2.78;;;1.65;;
54561;SDS011;69047;53.358;-1.486;2023-05-07T02:17:29;1.63;;;1.40;;
54561;SDS011;69047;53.358;-1.486;2023-05-07T02:19:56;1.98;;;1.52;;
54561;SDS011;69047;53.358;-1.486;2023-05-07T02:22:22;1.88;;;1.58;;
54561;SDS011;69047;53.358;-1.486;2023-05-07T02:24:47;1.65;;;1.55;;
54561;SDS011;69047;53.358;-1.486;2023-05-07T02:27:14;2.15;;;1.65;;
54561;SDS011;69047;53.358;-1.486;2023-05-07T02:29:39;1.33;;;1.23;;
54561;SDS011;69047;53.358;-1.486;2023-05-07T02:32:05;1.65;;;1.55;;
54561;SDS011;69047;53.358;-1.486;2023-05-07T02:34:30;1.80;;;1.60;;
54561;SDS011;69047;53.358;-1.486;2023-05-07T02:36:55;1.58;;;1.48;;
54561;SDS011;69047;53.358;-1.486;2023-05-07T02:39:21;1.63;;;1.52;;
54561;SDS011;69047;53.358;-1.486;2023-05-07T02:41:47;1.65;;;1.50;;
54561;SDS011;69047;53.358;-1.486;2023-05-07T02:44:12;1.85;;;1.70;;
54561;SDS011;69047;53.358;-1.486;2023-05-07T02:46:37;2.42;;;1.90;;
54561;SDS011;69047;53.358;-1.486;2023-05-07T02:49:03;1.52;;;1.40;;
54561;SDS011;69047;53.358;-1.486;2023-05-07T02:51:29;2.13;;;1.40;;
54561;SDS011;69047;53.358;-1.486;2023-05-07T02:53:55;2.20;;;1.58;;
54561;SDS011;69047;53.358;-1.486;2023-05-07T02:56:20;1.80;;;1.30;;
54561;SDS011;69047;53.358;-1.486;2023-05-07T02:58:46;1.63;;;1.40;;
54561;SDS011;69047;53.358;-1.486;2023-05-07T03:01:11;1.88;;;1.65;;
54561;SDS011;69047;53.358;-1.486;2023-05-07T03:03:38;1.55;;;1.30;;
54561;SDS011;69047;53.358;-1.486;2023-05-07T03:06:04;1.58;;;1.23;;
54561;SDS011;69047;53.358;-1.486;2023-05-07T03:08:30;2.85;;;1.58;;
54561;SDS011;69047;53.358;-1.486;2023-05-07T03:10:55;1.80;;;1.70;;
54561;SDS011;69047;53.358;-1.486;2023-05-07T03:13:20;2.05;;;1.52;;
54561;SDS011;69047;53.358;-1.486;2023-05-07T03:15:46;1.95;;;1.63;;
54561;SDS011;69047;53.358;-1.486;2023-05-07T03:18:11;1.90;;;1.63;;
54561;SDS011;69047;53.358;-1.486;2023-05-07T03:20:36;2.20;;;1.73;;
54561;SDS011;69047;53.358;-1.486;2023-05-07T03:23:02;1.83;;;1.70;;
54561;SDS011;69047;53.358;-1.486;2023-05-07T03:25:28;1.70;;;1.60;;
54561;SDS011;69047;53.358;-1.486;2023-05-07T03:27:55;1.65;;;1.55;;
54561;SDS011;69047;53.358;-1.486;2023-05-07T03:30:20;2.30;;;1.73;;
54561;SDS011;69047;53.358;-1.486;2023-05-07T03:32:46;1.80;;;1.70;;
54561;SDS011;69047;53.358;-1.486;2023-05-07T03:35:11;3.28;;;1.70;;
54561;SDS011;69047;53.358;-1.486;2023-05-07T03:37:37;2.35;;;1.45;;
54561;SDS011;69047;53.358;-1.486;2023-05-07T03:40:03;1.88;;;1.60;;
54561;SDS011;69047;53.358;-1.486;2023-05-07T03:42:29;3.22;;;1.45;;
54561;SDS011;69047;53.358;-1.486;2023-05-07T03:44:54;2.00;;;1.48;;
54561;SDS011;69047;53.358;-1.486;2023-05-07T03:47:19;1.90;;;1.50;;
54561;SDS011;69047;53.358;-1.486;2023-05-07T03:49:45;3.80;;;1.55;;
54561;SDS011;69047;53.358;-1.486;2023-05-07T03:52:10;1.45;;;1.35;;
54561;SDS011;69047;53.358;-1.486;2023-05-07T03:54:36;3.05;;;1.52;;
54561;SDS011;69047;53.358;-1.486;2023-05-07T03:57:01;1.45;;;1.20;;
54561;SDS011;69047;53.358;-1.486;2023-05-07T03:59:27;1.63;;;1.33;;
54561;SDS011;69047;53.358;-1.486;2023-05-07T04:01:52;1.33;;;1.23;;
54561;SDS011;69047;53.358;-1.486;2023-05-07T04:04:17;2.88;;;1.80;;
54561;SDS011;69047;53.358;-1.486;2023-05-07T04:06:43;1.75;;;1.20;;
54561;SDS011;69047;53.358;-1.486;2023-05-07T04:09:08;1.70;;;1.60;;
54561;SDS011;69047;53.358;-1.486;2023-05-07T04:11:34;1.83;;;1.60;;
54561;SDS011;69047;53.358;-1.486;2023-05-07T04:14:00;2.05;;;1.60;;
54561;SDS011;69047;53.358;-1.486;2023-05-07T04:16:25;2.13;;;1.63;;
54561;SDS011;69047;53.358;-1.486;2023-05-07T04:18:51;2.20;;;1.45;;
54561;SDS011;69047;53.358;-1.486;2023-05-07T04:21:17;2.03;;;1.83;;
54561;SDS011;69047;53.358;-1.486;2023-05-07T04:23:43;1.40;;;1.30;;
54561;SDS011;69047;53.358;-1.486;2023-05-07T04:26:09;3.92;;;1.55;;
54561;SDS011;69047;53.358;-1.486;2023-05-07T04:28:34;1.70;;;1.55;;
54561;SDS011;69047;53.358;-1.486;2023-05-07T04:31:00;3.15;;;1.70;;
54561;SDS011;69047;53.358;-1.486;2023-05-07T04:33:25;1.88;;;1.60;;
54561;SDS011;69047;53.358;-1.486;2023-05-07T04:35:50;1.98;;;1.63;;
54561;SDS011;69047;53.358;-1.486;2023-05-07T04:38:16;2.95;;;1.70;;
54561;SDS011;69047;53.358;-1.486;2023-05-07T04:40:43;1.65;;;1.55;;
54561;SDS011;69047;53.358;-1.486;2023-05-07T04:43:08;2.13;;;1.63;;
54561;SDS011;69047;53.358;-1.486;2023-05-07T04:45:34;1.40;;;1.30;;
54561;SDS011;69047;53.358;-1.486;2023-05-07T04:48:00;1.77;;;1.67;;
54561;SDS011;69047;53.358;-1.486;2023-05-07T04:50:26;1.40;;;1.30;;
54561;SDS011;69047;53.358;-1.486;2023-05-07T04:52:51;3.38;;;1.85;;
54561;SDS011;69047;53.358;-1.486;2023-05-07T04:55:17;2.35;;;1.70;;
54561;SDS011;69047;53.358;-1.486;2023-05-07T04:57:42;3.63;;;1.83;;
54561;SDS011;69047;53.358;-1.486;2023-05-07T05:00:07;1.48;;;1.38;;
54561;SDS011;69047;53.358;-1.486;2023-05-07T05:02:34;2.15;;;1.83;;
54561;SDS011;69047;53.358;-1.486;2023-05-07T05:05:00;5.47;;;1.92;;
54561;SDS011;69047;53.358;-1.486;2023-05-07T05:07:27;2.45;;;1.85;;
54561;SDS011;69047;53.358;-1.486;2023-05-07T05:09:52;2.97;;;1.65;;
54561;SDS011;69047;53.358;-1.486;2023-05-07T05:12:17;1.70;;;1.60;;
54561;SDS011;69047;53.358;-1.486;2023-05-07T05:14:43;1.60;;;1.50;;
54561;SDS011;69047;53.358;-1.486;2023-05-07T05:17:08;1.52;;;1.42;;
54561;SDS011;69047;53.358;-1.486;2023-05-07T05:19:34;2.08;;;1.27;;
54561;SDS011;69047;53.358;-1.486;2023-05-07T05:21:59;1.42;;;1.20;;
54561;SDS011;69047;53.358;-1.486;2023-05-07T05:24:26;1.30;;;1.20;;
54561;SDS011;69047;53.358;-1.486;2023-05-07T05:26:52;4.50;;;1.20;;
54561;SDS011;69047;53.358;-1.486;2023-05-07T05:29:18;2.08;;;1.23;;
54561;SDS011;69047;53.358;-1.486;2023-05-07T05:31:43;2.20;;;1.27;;
54561;SDS011;69047;53.358;-1.486;2023-05-07T05:34:09;1.13;;;1.00;;
54561;SDS011;69047;53.358;-1.486;2023-05-07T05:36:34;1.20;;;1.10;;
54561;SDS011;69047;53.358;-1.486;2023-05-07T05:39:00;2.35;;;1.40;;
54561;SDS011;69047;53.358;-1.486;2023-05-07T05:41:25;1.20;;;1.00;;
54561;SDS011;69047;53.358;-1.486;2023-05-07T05:43:50;1.67;;;1.02;;
54561;SDS011;69047;53.358;-1.486;2023-05-07T05:46:16;1.00;;;1.00;;
54561;SDS011;69047;53.358;-1.486;2023-05-07T05:48:41;1.50;;;1.30;;
54561;SDS011;69047;53.358;-1.486;2023-05-07T05:51:06;1.60;;;1.30;;
54561;SDS011;69047;53.358;-1.486;2023-05-07T05:53:32;1.05;;;1.00;;
54561;SDS011;69047;53.358;-1.486;2023-05-07T05:55:57;1.08;;;0.98;;
54561;SDS011;69047;53.358;-1.486;2023-05-07T05:58:23;1.10;;;0.95;;
54561;SDS011;69047;53.358;-1.486;2023-05-07T06:00:48;1.38;;;1.13;;
54561;SDS011;69047;53.358;-1.486;2023-05-07T06:03:16;1.08;;;0.90;;
54561;SDS011;69047;53.358;-1.486;2023-05-07T06:05:41;1.50;;;1.10;;
54561;SDS011;69047;53.358;-1.486;2023-05-07T06:08:07;1.08;;;0.75;;
54561;SDS011;69047;53.358;-1.486;2023-05-07T06:10:32;1.52;;;0.85;;
54561;SDS011;69047;53.358;-1.486;2023-05-07T06:12:58;1.67;;;0.95;;
54561;SDS011;69047;53.358;-1.486;2023-05-07T06:15:23;1.00;;;0.90;;
54561;SDS011;69047;53.358;-1.486;2023-05-07T06:17:48;0.77;;;0.70;;
54561;SDS011;69047;53.358;-1.486;2023-05-07T06:20:14;1.80;;;1.00;;
54561;SDS011;69047;53.358;-1.486;2023-05-07T06:22:39;0.70;;;0.70;;
54561;SDS011;69047;53.358;-1.486;2023-05-07T06:25:05;0.70;;;0.70;;
54561;SDS011;69047;53.358;-1.486;2023-05-07T06:27:30;0.82;;;0.70;;
54561;SDS011;69047;53.358;-1.486;2023-05-07T06:29:56;1.23;;;1.13;;
54561;SDS011;69047;53.358;-1.486;2023-05-07T06:32:21;0.88;;;0.80;;
54561;SDS011;69047;53.358;-1.486;2023-05-07T06:34:47;0.95;;;0.80;;
54561;SDS011;69047;53.358;-1.486;2023-05-07T06:37:12;0.98;;;0.90;;
54561;SDS011;69047;53.358;-1.486;2023-05-07T06:39:37;1.38;;;0.63;;
54561;SDS011;69047;53.358;-1.486;2023-05-07T06:42:03;1.17;;;0.75;;
54561;SDS011;69047;53.358;-1.486;2023-05-07T06:44:29;1.20;;;0.88;;
54561;SDS011;69047;53.358;-1.486;2023-05-07T06:46:55;1.23;;;0.88;;
54561;SDS011;69047;53.358;-1.486;2023-05-07T06:49:20;0.70;;;0.70;;
54561;SDS011;69047;53.358;-1.486;2023-05-07T06:51:46;0.52;;;0.52;;
54561;SDS011;69047;53.358;-1.486;2023-05-07T06:54:11;0.80;;;0.80;;
54561;SDS011;69047;53.358;-1.486;2023-05-07T06:56:37;0.80;;;0.80;;
54561;SDS011;69047;53.358;-1.486;2023-05-07T06:59:02;3.05;;;0.70;;
54561;SDS011;69047;53.358;-1.486;2023-05-07T07:01:28;1.60;;;0.85;;
54561;SDS011;69047;53.358;-1.486;2023-05-07T07:03:53;1.33;;;0.90;;
54561;SDS011;69047;53.358;-1.486;2023-05-07T07:06:18;1.15;;;0.90;;
54561;SDS011;69047;53.358;-1.486;2023-05-07T07:08:44;1.00;;;0.90;;
54561;SDS011;69047;53.358;-1.486;2023-05-07T07:11:09;1.60;;;1.17;;
54561;SDS011;69047;53.358;-1.486;2023-05-07T07:13:35;1.73;;;0.70;;
54561;SDS011;69047;53.358;-1.486;2023-05-07T07:16:00;1.30;;;1.17;;
54561;SDS011;69047;53.358;-1.486;2023-05-07T07:18:26;1.48;;;0.95;;
54561;SDS011;69047;53.358;-1.486;2023-05-07T07:20:51;1.02;;;0.80;;
54561;SDS011;69047;53.358;-1.486;2023-05-07T07:23:17;1.95;;;0.80;;
54561;SDS011;69047;53.358;-1.486;2023-05-07T07:25:42;0.60;;;0.60;;
54561;SDS011;69047;53.358;-1.486;2023-05-07T07:28:07;0.90;;;0.80;;
54561;SDS011;69047;53.358;-1.486;2023-05-07T07:30:33;1.27;;;0.93;;
54561;SDS011;69047;53.358;-1.486;2023-05-07T07:32:58;1.75;;;0.82;;
54561;SDS011;69047;53.358;-1.486;2023-05-07T07:35:28;0.98;;;0.88;;
54561;SDS011;69047;53.358;-1.486;2023-05-07T07:37:56;1.17;;;0.90;;
54561;SDS011;69047;53.358;-1.486;2023-05-07T07:40:22;1.25;;;0.80;;
54561;SDS011;69047;53.358;-1.486;2023-05-07T07:42:47;1.13;;;0.82;;
54561;SDS011;69047;53.358;-1.486;2023-05-07T07:45:13;0.82;;;0.73;;
54561;SDS011;69047;53.358;-1.486;2023-05-07T07:47:39;1.90;;;1.17;;
54561;SDS011;69047;53.358;-1.486;2023-05-07T07:50:05;1.58;;;1.10;;
54561;SDS011;69047;53.358;-1.486;2023-05-07T07:52:31;1.63;;;1.10;;
54561;SDS011;69047;53.358;-1.486;2023-05-07T07:54:57;1.73;;;1.40;;
54561;SDS011;69047;53.358;-1.486;2023-05-07T07:57:22;1.35;;;1.05;;
54561;SDS011;69047;53.358;-1.486;2023-05-07T07:59:48;1.45;;;1.35;;
54561;SDS011;69047;53.358;-1.486;2023-05-07T08:02:14;1.15;;;0.90;;
54561;SDS011;69047;53.358;-1.486;2023-05-07T08:04:39;1.10;;;0.95;;
54561;SDS011;69047;53.358;-1.486;2023-05-07T08:07:05;1.50;;;1.10;;
54561;SDS011;69047;53.358;-1.486;2023-05-07T08:09:31;1.67;;;1.33;;
54561;SDS011;69047;53.358;-1.486;2023-05-07T08:11:56;1.33;;;1.23;;
54561;SDS011;69047;53.358;-1.486;2023-05-07T08:14:22;2.88;;;1.73;;
54561;SDS011;69047;53.358;-1.486;2023-05-07T08:16:48;3.63;;;1.58;;
54561;SDS011;69047;53.358;-1.486;2023-05-07T08:19:13;1.70;;;1.42;;
54561;SDS011;69047;53.358;-1.486;2023-05-07T08:21:39;1.40;;;1.30;;
54561;SDS011;69047;53.358;-1.486;2023-05-07T08:24:05;1.65;;;1.48;;
54561;SDS011;69047;53.358;-1.486;2023-05-07T08:26:30;1.88;;;1.20;;
54561;SDS011;69047;53.358;-1.486;2023-05-07T08:28:56;1.98;;;1.40;;
54561;SDS011;69047;53.358;-1.486;2023-05-07T08:31:21;5.32;;;1.60;;
54561;SDS011;69047;53.358;-1.486;2023-05-07T08:33:46;1.80;;;1.38;;
54561;SDS011;69047;53.358;-1.486;2023-05-07T08:36:12;1.55;;;1.27;;
54561;SDS011;69047;53.358;-1.486;2023-05-07T08:38:38;1.70;;;1.30;;
54561;SDS011;69047;53.358;-1.486;2023-05-07T08:41:05;1.48;;;1.38;;
54561;SDS011;69047;53.358;-1.486;2023-05-07T08:43:32;1.67;;;1.40;;
54561;SDS011;69047;53.358;-1.486;2023-05-07T08:45:58;1.40;;;1.30;;
54561;SDS011;69047;53.358;-1.486;2023-05-07T08:48:27;3.28;;;1.30;;
54561;SDS011;69047;53.358;-1.486;2023-05-07T08:50:55;1.85;;;1.63;;
54561;SDS011;69047;53.358;-1.486;2023-05-07T08:53:20;1.60;;;1.50;;
54561;SDS011;69047;53.358;-1.486;2023-05-07T08:55:46;3.55;;;1.92;;
54561;SDS011;69047;53.358;-1.486;2023-05-07T08:58:12;4.47;;;1.83;;
54561;SDS011;69047;53.358;-1.486;2023-05-07T09:00:37;1.92;;;1.60;;
54561;SDS011;69047;53.358;-1.486;2023-05-07T09:03:04;1.77;;;1.30;;
54561;SDS011;69047;53.358;-1.486;2023-05-07T09:05:30;3.55;;;1.55;;
54561;SDS011;69047;53.358;-1.486;2023-05-07T09:07:55;2.03;;;1.35;;
54561;SDS011;69047;53.358;-1.486;2023-05-07T09:10:25;2.45;;;1.27;;
54561;SDS011;69047;53.358;-1.486;2023-05-07T09:12:51;1.80;;;1.52;;
54561;SDS011;69047;53.358;-1.486;2023-05-07T09:15:16;1.50;;;1.30;;
54561;SDS011;69047;53.358;-1.486;2023-05-07T09:17:43;1.48;;;1.30;;
54561;SDS011;69047;53.358;-1.486;2023-05-07T09:20:08;3.65;;;1.42;;
54561;SDS011;69047;53.358;-1.486;2023-05-07T09:22:38;3.47;;;1.27;;
54561;SDS011;69047;53.358;-1.486;2023-05-07T09:25:04;2.30;;;1.42;;
54561;SDS011;69047;53.358;-1.486;2023-05-07T09:27:31;2.58;;;1.35;;
54561;SDS011;69047;53.358;-1.486;2023-05-07T09:29:56;1.52;;;1.20;;
54561;SDS011;69047;53.358;-1.486;2023-05-07T09:32:21;8.32;;;2.30;;
54561;SDS011;69047;53.358;-1.486;2023-05-07T09:34:50;2.17;;;1.52;;
54561;SDS011;69047;53.358;-1.486;2023-05-07T09:37:23;2.95;;;1.77;;
54561;SDS011;69047;53.358;-1.486;2023-05-07T09:39:50;2.55;;;2.03;;
54561;SDS011;69047;53.358;-1.486;2023-05-07T09:42:16;2.58;;;2.00;;
54561;SDS011;69047;53.358;-1.486;2023-05-07T09:44:48;5.70;;;1.92;;
54561;SDS011;69047;53.358;-1.486;2023-05-07T09:47:15;4.25;;;1.83;;
54561;SDS011;69047;53.358;-1.486;2023-05-07T09:49:43;2.92;;;1.73;;
54561;SDS011;69047;53.358;-1.486;2023-05-07T09:52:12;9.20;;;1.90;;
54561;SDS011;69047;53.358;-1.486;2023-05-07T09:54:39;2.72;;;1.52;;
54561;SDS011;69047;53.358;-1.486;2023-05-07T09:57:05;2.72;;;1.85;;
54561;SDS011;69047;53.358;-1.486;2023-05-07T09:59:32;3.75;;;1.60;;
54561;SDS011;69047;53.358;-1.486;2023-05-07T10:01:58;4.55;;;1.92;;
54561;SDS011;69047;53.358;-1.486;2023-05-07T10:04:27;5.03;;;1.50;;
54561;SDS011;69047;53.358;-1.486;2023-05-07T10:06:53;2.95;;;1.40;;
54561;SDS011;69047;53.358;-1.486;2023-05-07T10:09:22;3.67;;;1.80;;
54561;SDS011;69047;53.358;-1.486;2023-05-07T10:11:51;2.80;;;1.23;;
54561;SDS011;69047;53.358;-1.486;2023-05-07T10:14:18;2.53;;;1.48;;
54561;SDS011;69047;53.358;-1.486;2023-05-07T10:16:45;4.18;;;1.58;;
54561;SDS011;69047;53.358;-1.486;2023-05-07T10:19:12;2.90;;;1.35;;
54561;SDS011;69047;53.358;-1.486;2023-05-07T10:21:54;4.20;;;1.77;;
54561;SDS011;69047;53.358;-1.486;2023-05-07T10:24:23;3.78;;;1.30;;
54561;SDS011;69047;53.358;-1.486;2023-05-07T10:26:53;3.20;;;1.67;;
54561;SDS011;69047;53.358;-1.486;2023-05-07T10:29:37;2.10;;;1.30;;
54561;SDS011;69047;53.358;-1.486;2023-05-07T10:35:04;1.83;;;1.10;;
54561;SDS011;69047;53.358;-1.486;2023-05-07T10:37:35;2.72;;;1.00;;
54561;SDS011;69047;53.358;-1.486;2023-05-07T10:40:01;4.30;;;1.73;;
54561;SDS011;69047;53.358;-1.486;2023-05-07T10:42:26;2.90;;;1.42;;
54561;SDS011;69047;53.358;-1.486;2023-05-07T10:44:51;4.45;;;1.40;;
54561;SDS011;69047;53.358;-1.486;2023-05-07T10:47:17;4.15;;;1.42;;
54561;SDS011;69047;53.358;-1.486;2023-05-07T10:54:45;2.42;;;1.63;;
54561;SDS011;69047;53.358;-1.486;2023-05-07T11:00:01;6.45;;;2.10;;
54561;SDS011;69047;53.358;-1.486;2023-05-07T11:05:25;5.22;;;2.78;;
54561;SDS011;69047;53.358;-1.486;2023-05-07T11:08:01;5.43;;;2.85;;
54561;SDS011;69047;53.358;-1.486;2023-05-07T11:13:19;8.25;;;3.53;;
54561;SDS011;69047;53.358;-1.486;2023-05-07T11:16:16;8.93;;;3.78;;
54561;SDS011;69047;53.358;-1.486;2023-05-07T11:18:49;7.13;;;3.42;;
54561;SDS011;69047;53.358;-1.486;2023-05-07T11:21:37;4.78;;;2.97;;
54561;SDS011;69047;53.358;-1.486;2023-05-07T11:24:03;8.75;;;3.67;;
54561;SDS011;69047;53.358;-1.486;2023-05-07T11:26:30;8.23;;;3.88;;
54561;SDS011;69047;53.358;-1.486;2023-05-07T11:29:10;5.18;;;3.45;;
54561;SDS011;69047;53.358;-1.486;2023-05-07T11:31:39;5.28;;;3.38;;
54561;SDS011;69047;53.358;-1.486;2023-05-07T11:34:05;4.53;;;3.17;;
54561;SDS011;69047;53.358;-1.486;2023-05-07T11:36:31;5.22;;;3.20;;
54561;SDS011;69047;53.358;-1.486;2023-05-07T11:38:58;6.57;;;3.28;;
54561;SDS011;69047;53.358;-1.486;2023-05-07T11:41:33;6.90;;;2.70;;
54561;SDS011;69047;53.358;-1.486;2023-05-07T11:44:00;7.60;;;2.80;;
54561;SDS011;69047;53.358;-1.486;2023-05-07T11:46:26;8.25;;;2.95;;
54561;SDS011;69047;53.358;-1.486;2023-05-07T11:48:52;8.73;;;3.35;;
54561;SDS011;69047;53.358;-1.486;2023-05-07T11:51:18;8.07;;;2.83;;
54561;SDS011;69047;53.358;-1.486;2023-05-07T11:53:44;6.28;;;2.80;;
54561;SDS011;69047;53.358;-1.486;2023-05-07T11:56:11;5.68;;;2.80;;
54561;SDS011;69047;53.358;-1.486;2023-05-07T11:58:38;7.47;;;2.70;;
54561;SDS011;69047;53.358;-1.486;2023-05-07T12:01:06;9.07;;;2.58;;
54561;SDS011;69047;53.358;-1.486;2023-05-07T12:03:33;8.82;;;2.90;;
54561;SDS011;69047;53.358;-1.486;2023-05-07T12:05:59;7.80;;;2.25;;
54561;SDS011;69047;53.358;-1.486;2023-05-07T12:08:25;7.60;;;2.67;;
54561;SDS011;69047;53.358;-1.486;2023-05-07T12:10:50;5.75;;;2.42;;
54561;SDS011;69047;53.358;-1.486;2023-05-07T12:13:16;7.63;;;3.13;;
54561;SDS011;69047;53.358;-1.486;2023-05-07T12:15:46;8.63;;;3.00;;
54561;SDS011;69047;53.358;-1.486;2023-05-07T12:18:18;9.48;;;3.08;;
54561;SDS011;69047;53.358;-1.486;2023-05-07T12:20:45;15.02;;;3.85;;
54561;SDS011;69047;53.358;-1.486;2023-05-07T12:23:11;6.28;;;3.05;;
54561;SDS011;69047;53.358;-1.486;2023-05-07T12:25:38;9.35;;;3.05;;
54561;SDS011;69047;53.358;-1.486;2023-05-07T12:28:13;9.13;;;3.13;;
54561;SDS011;69047;53.358;-1.486;2023-05-07T12:30:45;8.63;;;2.65;;
54561;SDS011;69047;53.358;-1.486;2023-05-07T12:33:16;6.22;;;2.72;;
54561;SDS011;69047;53.358;-1.486;2023-05-07T12:35:48;8.30;;;2.53;;
54561;SDS011;69047;53.358;-1.486;2023-05-07T12:38:14;7.75;;;2.28;;
54561;SDS011;69047;53.358;-1.486;2023-05-07T12:40:44;10.60;;;2.17;;
54561;SDS011;69047;53.358;-1.486;2023-05-07T12:43:24;9.95;;;2.95;;
54561;SDS011;69047;53.358;-1.486;2023-05-07T12:45:52;8.10;;;2.28;;
54561;SDS011;69047;53.358;-1.486;2023-05-07T12:48:20;6.97;;;2.55;;
54561;SDS011;69047;53.358;-1.486;2023-05-07T12:50:48;7.80;;;2.22;;
54561;SDS011;69047;53.358;-1.486;2023-05-07T12:53:15;3.88;;;1.95;;
54561;SDS011;69047;53.358;-1.486;2023-05-07T12:55:44;10.98;;;2.17;;
54561;SDS011;69047;53.358;-1.486;2023-05-07T12:58:17;8.30;;;3.05;;
54561;SDS011;69047;53.358;-1.486;2023-05-07T13:00:44;6.75;;;2.40;;
54561;SDS011;69047;53.358;-1.486;2023-05-07T13:03:10;6.72;;;2.60;;
54561;SDS011;69047;53.358;-1.486;2023-05-07T13:05:36;8.32;;;2.47;;
54561;SDS011;69047;53.358;-1.486;2023-05-07T13:08:02;8.55;;;2.72;;
54561;SDS011;69047;53.358;-1.486;2023-05-07T13:10:27;6.28;;;2.70;;
54561;SDS011;69047;53.358;-1.486;2023-05-07T13:12:53;7.75;;;2.13;;
54561;SDS011;69047;53.358;-1.486;2023-05-07T13:15:19;6.13;;;2.20;;
54561;SDS011;69047;53.358;-1.486;2023-05-07T13:17:46;8.15;;;2.17;;
54561;SDS011;69047;53.358;-1.486;2023-05-07T13:20:12;8.35;;;2.47;;
54561;SDS011;69047;53.358;-1.486;2023-05-07T13:22:38;8.95;;;2.40;;
54561;SDS011;69047;53.358;-1.486;2023-05-07T13:25:05;10.77;;;2.70;;
54561;SDS011;69047;53.358;-1.486;2023-05-07T13:27:31;8.07;;;2.50;;
54561;SDS011;69047;53.358;-1.486;2023-05-07T13:29:57;10.60;;;2.60;;
54561;SDS011;69047;53.358;-1.486;2023-05-07T13:32:23;9.85;;;3.38;;
54561;SDS011;69047;53.358;-1.486;2023-05-07T13:34:48;11.20;;;3.33;;
54561;SDS011;69047;53.358;-1.486;2023-05-07T13:37:14;9.57;;;2.58;;
54561;SDS011;69047;53.358;-1.486;2023-05-07T13:39:39;7.88;;;2.60;;
54561;SDS011;69047;53.358;-1.486;2023-05-07T13:42:05;8.20;;;2.85;;
54561;SDS011;69047;53.358;-1.486;2023-05-07T13:44:31;6.55;;;2.67;;
54561;SDS011;69047;53.358;-1.486;2023-05-07T13:46:58;11.50;;;2.88;;
54561;SDS011;69047;53.358;-1.486;2023-05-07T13:49:23;5.97;;;2.63;;
54561;SDS011;69047;53.358;-1.486;2023-05-07T13:51:49;5.43;;;2.03;;
54561;SDS011;69047;53.358;-1.486;2023-05-07T13:54:14;4.80;;;2.15;;
54561;SDS011;69047;53.358;-1.486;2023-05-07T13:56:40;6.38;;;2.78;;
54561;SDS011;69047;53.358;-1.486;2023-05-07T13:59:06;4.05;;;2.08;;
54561;SDS011;69047;53.358;-1.486;2023-05-07T14:01:31;8.93;;;2.92;;
54561;SDS011;69047;53.358;-1.486;2023-05-07T14:03:57;13.07;;;2.78;;
54561;SDS011;69047;53.358;-1.486;2023-05-07T14:06:25;9.70;;;2.88;;
54561;SDS011;69047;53.358;-1.486;2023-05-07T14:08:50;3.17;;;2.15;;
54561;SDS011;69047;53.358;-1.486;2023-05-07T14:11:16;8.20;;;2.55;;
54561;SDS011;69047;53.358;-1.486;2023-05-07T14:13:42;8.13;;;2.22;;
54561;SDS011;69047;53.358;-1.486;2023-05-07T14:16:07;8.20;;;3.05;;
54561;SDS011;69047;53.358;-1.486;2023-05-07T14:18:33;8.77;;;2.35;;
54561;SDS011;69047;53.358;-1.486;2023-05-07T14:20:59;7.50;;;3.08;;
54561;SDS011;69047;53.358;-1.486;2023-05-07T14:23:24;7.35;;;2.83;;
54561;SDS011;69047;53.358;-1.486;2023-05-07T14:25:51;5.97;;;2.47;;
54561;SDS011;69047;53.358;-1.486;2023-05-07T14:28:18;3.08;;;1.90;;
54561;SDS011;69047;53.358;-1.486;2023-05-07T14:30:43;9.00;;;2.38;;
54561;SDS011;69047;53.358;-1.486;2023-05-07T14:33:08;6.72;;;2.38;;
54561;SDS011;69047;53.358;-1.486;2023-05-07T14:35:34;4.32;;;1.95;;
54561;SDS011;69047;53.358;-1.486;2023-05-07T14:38:00;8.27;;;2.40;;
54561;SDS011;69047;53.358;-1.486;2023-05-07T14:40:25;8.85;;;2.45;;
54561;SDS011;69047;53.358;-1.486;2023-05-07T14:42:51;6.57;;;2.33;;
54561;SDS011;69047;53.358;-1.486;2023-05-07T14:45:16;6.65;;;2.22;;